Time;durP1;ratioP1;P1;durP2;ratioP2;P2;SDS_P1;SDS_P2;PMS_P1;PMS_P2;Temp;Humidity;BMP_temperature;BMP_pressure;BME280_temperature;BME280_humidity;BME280_pressure;Samples;Min_cycle;Max_cycle;Signal;HPM_P1;HPM_P2
2021/10/01 00:01:57;;;;;;;0.40;0.40;;;11.20;99.90;;;;;;5038148;28;20025;-74
2021/10/01 00:04:23;;;;;;;3.10;0.30;;;11.10;99.90;;;;;;5035491;28;20029;-73
2021/10/01 00:06:48;;;;;;;0.05;0.05;;;11.10;99.90;;;;;;5037808;28;20052;-73
2021/10/01 00:09:14;;;;;;;0.00;0.00;;;11.00;99.90;;;;;;5038400;28;20469;-73
2021/10/01 00:11:43;;;;;;;1.38;0.32;;;11.00;99.90;;;;;;5036687;28;20033;-74
2021/10/01 00:14:09;;;;;;;2.65;0.28;;;11.00;99.90;;;;;;5042792;28;20028;-74
2021/10/01 00:16:34;;;;;;;0.63;0.40;;;11.00;99.90;;;;;;5036958;28;20353;-74
2021/10/01 00:19:00;;;;;;;7.38;0.50;;;10.90;99.90;;;;;;5041402;28;20036;-74
2021/10/01 00:21:25;;;;;;;0.00;0.00;;;10.90;99.90;;;;;;5038361;28;20391;-74
2021/10/01 00:23:51;;;;;;;9.85;0.70;;;10.90;99.90;;;;;;5039777;28;20072;-73
2021/10/01 00:26:16;;;;;;;0.25;0.25;;;10.90;99.90;;;;;;5034613;28;20041;-73
2021/10/01 00:28:42;;;;;;;0.03;0.03;;;10.80;99.90;;;;;;5036045;28;20040;-73
2021/10/01 00:31:07;;;;;;;0.10;0.10;;;10.80;99.90;;;;;;5038977;28;20066;-73
2021/10/01 00:33:33;;;;;;;0.00;0.00;;;10.80;99.90;;;;;;5037946;28;20035;-74
2021/10/01 00:36:00;;;;;;;0.05;0.05;;;10.80;99.90;;;;;;5035905;28;20073;-73
2021/10/01 00:38:27;;;;;;;0.20;0.20;;;10.80;99.90;;;;;;5032835;28;20025;-73
2021/10/01 00:40:53;;;;;;;0.17;0.17;;;10.70;99.90;;;;;;5036972;28;20021;-73
2021/10/01 00:43:18;;;;;;;0.20;0.20;;;10.70;99.90;;;;;;5032261;28;20129;-72
2021/10/01 00:45:44;;;;;;;0.30;0.30;;;10.70;99.90;;;;;;5035536;28;20025;-73
2021/10/01 00:48:09;;;;;;;0.25;0.25;;;10.70;99.90;;;;;;5038889;28;20092;-73
2021/10/01 00:50:35;;;;;;;0.45;0.45;;;10.60;99.90;;;;;;5040305;28;20037;-73
2021/10/01 00:53:02;;;;;;;0.00;0.00;;;10.70;99.90;;;;;;5039141;28;20431;-73
2021/10/01 00:55:29;;;;;;;0.22;0.22;;;10.70;99.90;;;;;;5032550;28;20049;-73
2021/10/01 00:57:54;;;;;;;0.00;0.00;;;10.70;99.90;;;;;;5045666;28;20515;-73
2021/10/01 01:00:27;;;;;;;0.20;0.20;;;10.60;99.90;;;;;;5055572;28;20042;-73
2021/10/01 01:02:58;;;;;;;0.08;0.05;;;10.60;99.90;;;;;;5058755;28;20024;-74
2021/10/01 01:05:38;;;;;;;0.40;0.40;;;10.70;99.90;;;;;;5055389;28;20529;-73
2021/10/01 01:08:09;;;;;;;0.60;0.57;;;10.70;99.90;;;;;;5050511;28;20380;-73
2021/10/01 01:10:56;;;;;;;0.03;0.03;;;10.70;99.90;;;;;;5055425;28;20505;-73
2021/10/01 01:13:39;;;;;;;0.10;0.10;;;10.70;99.90;;;;;;5054540;28;20094;-73
2021/10/01 01:16:10;;;;;;;0.00;0.00;;;10.60;99.90;;;;;;5059995;28;20039;-73
2021/10/01 01:18:42;;;;;;;0.43;0.40;;;10.70;99.90;;;;;;5058726;28;20112;-73
2021/10/01 01:21:14;;;;;;;;;;;10.70;99.90;;;;;;5055105;28;20028;-74
2021/10/01 01:24:14;;;;;;;0.38;0.32;;;10.70;99.90;;;;;;5055016;28;19995;-73
2021/10/01 01:26:49;;;;;;;0.00;0.00;;;10.70;99.90;;;;;;5025019;28;20029;-73
2021/10/01 01:29:37;;;;;;;0.70;0.68;;;10.70;99.90;;;;;;5058098;28;20032;-73
2021/10/01 01:32:13;;;;;;;0.28;0.28;;;10.60;99.90;;;;;;5055691;28;20380;-73
2021/10/01 01:34:47;;;;;;;0.10;0.10;;;10.60;99.90;;;;;;5054597;28;20036;-73
2021/10/01 01:37:22;;;;;;;0.28;0.28;;;10.60;99.90;;;;;;5056388;28;20036;-74
2021/10/01 01:39:48;;;;;;;0.38;0.17;;;10.60;99.90;;;;;;5058318;28;20517;-73
2021/10/01 01:42:21;;;;;;;1.17;0.63;;;10.60;99.90;;;;;;5060201;28;20032;-73
2021/10/01 01:44:48;;;;;;;0.10;0.10;;;10.50;99.90;;;;;;5061831;28;20025;-73
2021/10/01 01:47:14;;;;;;;0.00;0.00;;;10.50;99.90;;;;;;5060262;28;20020;-73
2021/10/01 01:49:42;;;;;;;0.20;0.20;;;10.40;99.90;;;;;;5057965;28;20020;-73
2021/10/01 01:52:08;;;;;;;0.13;0.13;;;10.40;99.90;;;;;;5057048;28;20489;-73
2021/10/01 01:54:34;;;;;;;0.08;0.08;;;10.40;99.90;;;;;;5055849;28;20632;-73
2021/10/01 01:57:02;;;;;;;1.98;0.20;;;10.50;99.90;;;;;;5055825;28;20045;-73
2021/10/01 01:59:28;;;;;;;0.17;0.17;;;10.50;99.90;;;;;;5059601;28;20028;-73
2021/10/01 02:01:56;;;;;;;0.17;0.10;;;10.50;99.90;;;;;;5059272;28;20029;-73
2021/10/01 02:04:23;;;;;;;0.10;0.10;;;10.50;99.90;;;;;;5065748;28;20114;-73
2021/10/01 02:06:49;;;;;;;0.10;0.10;;;10.50;99.90;;;;;;5060871;28;20501;-74
2021/10/01 02:09:16;;;;;;;0.47;0.35;;;10.50;99.90;;;;;;5063535;28;20107;-73
2021/10/01 02:11:44;;;;;;;0.03;0.03;;;10.60;99.90;;;;;;5060563;28;20012;-74
2021/10/01 02:14:12;;;;;;;0.68;0.40;;;10.60;99.90;;;;;;5042958;28;20043;-73
2021/10/01 02:16:39;;;;;;;0.40;0.40;;;10.60;99.90;;;;;;5062136;28;20127;-73
2021/10/01 02:19:06;;;;;;;0.22;0.22;;;10.60;99.90;;;;;;5055796;28;20020;-73
2021/10/01 02:21:33;;;;;;;0.65;0.65;;;10.60;99.90;;;;;;5059812;28;20128;-73
2021/10/01 02:23:59;;;;;;;0.52;0.47;;;10.60;99.90;;;;;;5060565;28;20039;-73
2021/10/01 02:26:34;;;;;;;0.00;0.00;;;10.60;99.90;;;;;;5060474;28;20017;-73
2021/10/01 02:29:10;;;;;;;0.80;0.38;;;10.60;99.90;;;;;;5055818;28;20024;-72
2021/10/01 02:31:54;;;;;;;1.45;0.15;;;10.60;99.90;;;;;;5059885;28;20500;-73
2021/10/01 02:34:31;;;;;;;0.52;0.20;;;10.60;99.90;;;;;;5059242;28;20048;-73
2021/10/01 02:36:57;;;;;;;0.00;0.00;;;10.60;99.90;;;;;;5049278;28;20398;-73
2021/10/01 02:39:23;;;;;;;0.20;0.20;;;10.60;99.90;;;;;;5058126;28;20051;-73
2021/10/01 02:41:48;;;;;;;0.10;0.10;;;10.60;99.90;;;;;;5059589;28;20238;-74
2021/10/01 02:44:14;;;;;;;0.10;0.10;;;10.60;99.90;;;;;;5051651;28;20494;-73
2021/10/01 02:46:39;;;;;;;0.08;0.08;;;10.60;99.90;;;;;;5064482;28;20024;-73
2021/10/01 02:49:05;;;;;;;0.10;0.10;;;10.60;99.90;;;;;;5064694;28;20027;-73
2021/10/01 02:51:34;;;;;;;0.10;0.10;;;10.60;99.90;;;;;;5061717;28;20462;-73
2021/10/01 02:54:08;;;;;;;0.10;0.10;;;10.70;99.90;;;;;;5060443;28;20574;-73
2021/10/01 02:56:42;;;;;;;0.00;0.00;;;10.70;99.90;;;;;;5066460;28;20120;-73
2021/10/01 02:59:10;;;;;;;0.52;0.45;;;10.70;99.90;;;;;;5064035;28;20040;-73
2021/10/01 03:01:37;;;;;;;0.00;0.00;;;10.70;99.90;;;;;;5060743;28;20481;-73
2021/10/01 03:04:09;;;;;;;0.73;0.73;;;10.70;99.90;;;;;;5061487;28;20032;-73
2021/10/01 03:06:43;;;;;;;0.55;0.52;;;10.70;99.90;;;;;;5061172;28;20124;-73
2021/10/01 03:09:10;;;;;;;0.10;0.10;;;10.70;99.90;;;;;;5038698;28;20048;-73
2021/10/01 03:11:36;;;;;;;0.45;0.40;;;10.70;99.90;;;;;;5039835;28;20560;-73
2021/10/01 03:14:03;;;;;;;0.00;0.00;;;10.70;99.90;;;;;;5048184;28;20438;-73
2021/10/01 03:16:32;;;;;;;0.50;0.50;;;10.60;99.90;;;;;;5058861;28;20486;-73
2021/10/01 03:18:58;;;;;;;0.10;0.10;;;10.60;99.90;;;;;;5057311;28;20074;-73
2021/10/01 03:21:25;;;;;;;0.40;0.40;;;10.60;99.90;;;;;;5056217;28;20032;-73
2021/10/01 03:23:52;;;;;;;0.20;0.20;;;10.60;99.90;;;;;;5062797;28;20234;-74
2021/10/01 03:26:18;;;;;;;0.00;0.00;;;10.60;99.90;;;;;;5064327;28;20528;-73
2021/10/01 03:28:44;;;;;;;1.10;0.50;;;10.60;99.90;;;;;;5059684;28;20441;-73
2021/10/01 03:31:10;;;;;;;0.00;0.00;;;10.60;99.90;;;;;;5059069;28;20037;-72
2021/10/01 03:33:36;;;;;;;0.47;0.47;;;10.60;99.90;;;;;;5057007;28;20445;-74
2021/10/01 03:36:01;;;;;;;0.10;0.10;;;10.60;99.90;;;;;;5059065;28;20483;-73
2021/10/01 03:38:27;;;;;;;0.40;0.28;;;10.60;99.90;;;;;;5064084;28;20056;-73
2021/10/01 03:40:53;;;;;;;0.75;0.50;;;10.60;99.90;;;;;;5066520;28;20392;-73
2021/10/01 03:43:24;;;;;;;0.60;0.57;;;10.50;99.90;;;;;;5064302;28;20037;-73
2021/10/01 03:45:51;;;;;;;0.10;0.10;;;10.50;99.90;;;;;;5059912;28;20025;-74
2021/10/01 03:48:17;;;;;;;0.00;0.00;;;10.50;99.90;;;;;;5051064;28;20059;-73
2021/10/01 03:50:43;;;;;;;0.63;0.38;;;10.50;99.90;;;;;;5054976;28;20033;-73
2021/10/01 03:53:09;;;;;;;0.00;0.00;;;10.50;99.70;;;;;;5061948;28;20078;-73
2021/10/01 03:55:35;;;;;;;0.20;0.20;;;10.50;99.50;;;;;;5055211;28;20872;-73
2021/10/01 03:58:00;;;;;;;1.50;0.63;;;10.50;99.50;;;;;;5045181;28;20427;-74
2021/10/01 04:00:26;;;;;;;0.17;0.17;;;10.50;99.20;;;;;;5038266;28;20032;-73
2021/10/01 04:02:51;;;;;;;0.17;0.17;;;10.50;99.10;;;;;;5040572;28;20021;-70
2021/10/01 04:05:17;;;;;;;0.50;0.50;;;10.50;99.10;;;;;;5033156;28;20025;-69
2021/10/01 04:07:43;;;;;;;0.20;0.20;;;10.50;99.00;;;;;;5034354;28;20036;-70
2021/10/01 04:10:11;;;;;;;1.85;0.45;;;10.50;99.30;;;;;;5034103;28;20025;-70
2021/10/01 04:12:36;;;;;;;0.10;0.10;;;10.50;98.80;;;;;;5036605;28;20036;-70
2021/10/01 04:15:03;;;;;;;0.45;0.28;;;10.50;99.10;;;;;;5034373;28;20028;-70
2021/10/01 04:17:35;;;;;;;0.60;0.50;;;10.50;99.00;;;;;;5037223;28;20400;-72
2021/10/01 04:20:00;;;;;;;;;;;10.50;98.90;;;;;;5034563;28;20069;-71
2021/10/01 04:22:26;;;;;;;0.00;0.00;;;10.50;99.30;;;;;;5037881;28;19917;-69
2021/10/01 04:24:52;;;;;;;0.32;0.20;;;10.50;99.60;;;;;;5043775;28;20021;-70
2021/10/01 04:27:18;;;;;;;0.10;0.10;;;10.50;99.40;;;;;;5037761;28;20108;-69
2021/10/01 04:29:43;;;;;;;0.20;0.20;;;10.50;98.80;;;;;;5039958;28;20182;-70
2021/10/01 04:32:10;;;;;;;1.65;0.85;;;10.50;99.10;;;;;;5029644;28;20022;-69
2021/10/01 04:34:53;;;;;;;0.10;0.10;;;10.50;99.00;;;;;;5042732;28;20128;-70
2021/10/01 04:37:19;;;;;;;0.30;0.30;;;10.50;99.60;;;;;;5036332;28;20384;-70
2021/10/01 04:39:44;;;;;;;0.00;0.00;;;10.50;99.30;;;;;;5034488;28;20025;-71
2021/10/01 04:42:09;;;;;;;0.15;0.15;;;10.50;99.80;;;;;;5037431;28;20432;-71
2021/10/01 04:44:35;;;;;;;0.28;0.28;;;10.40;99.90;;;;;;5034964;28;20124;-71
2021/10/01 04:47:00;;;;;;;0.17;0.17;;;10.40;99.90;;;;;;5035139;28;20029;-71
2021/10/01 04:49:27;;;;;;;0.10;0.10;;;10.40;99.90;;;;;;5036211;28;20025;-71
2021/10/01 04:51:53;;;;;;;1.98;1.10;;;10.30;99.90;;;;;;5041411;28;20491;-71
2021/10/01 04:54:18;;;;;;;0.40;0.40;;;10.30;99.90;;;;;;5035274;28;20033;-70
2021/10/01 04:56:44;;;;;;;0.00;0.00;;;10.30;99.90;;;;;;5030194;28;20083;-71
2021/10/01 04:59:09;;;;;;;0.00;0.00;;;10.30;99.90;;;;;;5062603;28;20036;-71
2021/10/01 05:01:35;;;;;;;1.45;1.00;;;10.30;99.90;;;;;;5054446;28;20082;-70
2021/10/01 05:04:01;;;;;;;0.45;0.45;;;10.30;99.90;;;;;;5060545;28;20478;-72
2021/10/01 05:06:26;;;;;;;0.57;0.43;;;10.30;99.90;;;;;;5055371;28;20561;-70
2021/10/01 05:08:52;;;;;;;1.33;0.60;;;10.30;99.90;;;;;;5062076;28;20140;-70
2021/10/01 05:11:18;;;;;;;0.95;0.65;;;10.30;99.90;;;;;;5063759;28;20145;-71
2021/10/01 05:13:43;;;;;;;0.50;0.50;;;10.30;99.90;;;;;;5061924;28;20450;-71
2021/10/01 05:16:09;;;;;;;0.20;0.20;;;10.30;99.90;;;;;;5061226;28;20024;-72
2021/10/01 05:18:34;;;;;;;0.52;0.52;;;10.30;99.90;;;;;;5064838;28;20457;-71
2021/10/01 05:21:02;;;;;;;0.08;0.08;;;10.30;99.90;;;;;;5057264;28;20063;-71
2021/10/01 05:23:31;;;;;;;0.13;0.13;;;10.30;99.90;;;;;;5062082;28;20107;-72
2021/10/01 05:25:58;;;;;;;0.40;0.38;;;10.30;99.90;;;;;;5057742;28;20032;-71
2021/10/01 05:28:24;;;;;;;0.10;0.10;;;10.30;99.90;;;;;;5062867;28;20100;-71
2021/10/01 05:30:49;;;;;;;0.50;0.50;;;10.30;99.90;;;;;;5063728;28;20719;-72
2021/10/01 05:33:15;;;;;;;0.25;0.25;;;10.40;99.40;;;;;;5052984;28;20150;-72
2021/10/01 05:35:43;;;;;;;0.20;0.20;;;10.40;99.20;;;;;;5061801;28;20029;-72
2021/10/01 05:38:09;;;;;;;0.28;0.28;;;10.40;99.30;;;;;;5063133;28;20016;-72
2021/10/01 05:40:35;;;;;;;0.10;0.10;;;10.40;99.90;;;;;;5062485;28;20051;-73
2021/10/01 05:43:01;;;;;;;3.20;1.85;;;10.40;99.90;;;;;;5061174;28;20483;-71
2021/10/01 05:45:26;;;;;;;0.35;0.08;;;10.50;99.60;;;;;;5060943;28;20028;-70
2021/10/01 05:47:52;;;;;;;0.00;0.00;;;10.50;99.10;;;;;;5060470;28;20043;-73
2021/10/01 05:50:32;;;;;;;0.08;0.08;;;10.50;99.10;;;;;;5061826;28;20032;-72
2021/10/01 05:53:04;;;;;;;0.80;0.43;;;10.50;98.70;;;;;;5051103;28;20028;-73
2021/10/01 05:55:30;;;;;;;;;;;10.50;98.70;;;;;;5061183;28;20029;-73
2021/10/01 05:57:55;;;;;;;27.38;0.63;;;10.60;98.70;;;;;;5061037;28;20390;-73
2021/10/01 06:00:22;;;;;;;0.10;0.10;;;10.60;98.40;;;;;;5063650;28;20028;-73
2021/10/01 06:02:48;;;;;;;0.38;0.35;;;10.60;97.80;;;;;;5063682;28;20059;-74
2021/10/01 06:05:14;;;;;;;2.28;1.73;;;10.70;97.50;;;;;;5063437;28;20515;-74
2021/10/01 06:07:41;;;;;;;0.10;0.10;;;10.70;98.00;;;;;;5063853;28;20051;-73
2021/10/01 06:10:08;;;;;;;0.50;0.40;;;10.80;97.60;;;;;;5059430;28;20024;-73
2021/10/01 06:12:34;;;;;;;0.10;0.10;;;10.80;97.30;;;;;;5067026;28;20527;-73
2021/10/01 06:15:01;;;;;;;0.20;0.20;;;10.80;96.60;;;;;;5066390;28;20077;-73
2021/10/01 06:17:26;;;;;;;1.55;0.75;;;10.90;97.10;;;;;;5060311;28;20445;-73
2021/10/01 06:19:52;;;;;;;0.00;0.00;;;11.00;97.40;;;;;;5061999;28;20031;-74
2021/10/01 06:22:17;;;;;;;0.70;0.35;;;11.00;96.50;;;;;;5065274;28;20024;-74
2021/10/01 06:24:43;;;;;;;0.00;0.00;;;11.00;96.70;;;;;;5040639;28;20533;-73
2021/10/01 06:27:09;;;;;;;0.57;0.35;;;11.10;96.10;;;;;;5061549;28;20375;-73
2021/10/01 06:29:35;;;;;;;0.17;0.17;;;11.10;95.70;;;;;;5065590;28;20341;-74
2021/10/01 06:32:01;;;;;;;0.30;0.20;;;11.20;95.10;;;;;;5062188;28;20417;-73
2021/10/01 06:34:26;;;;;;;0.35;0.35;;;11.20;94.90;;;;;;5064910;28;20044;-73
2021/10/01 06:36:52;;;;;;;0.10;0.10;;;11.30;95.30;;;;;;5063979;28;20501;-73
2021/10/01 06:39:18;;;;;;;0.03;0.03;;;11.30;94.90;;;;;;5060710;28;20387;-73
2021/10/01 06:41:43;;;;;;;0.32;0.32;;;11.30;94.80;;;;;;5060152;28;20679;-72
2021/10/01 06:44:14;;;;;;;0.40;0.35;;;11.40;94.20;;;;;;5059223;28;20032;-73
2021/10/01 06:46:47;;;;;;;0.27;0.27;;;11.50;94.00;;;;;;5061762;28;20088;-73
2021/10/01 06:49:25;;;;;;;0.15;0.15;;;11.50;93.90;;;;;;5063241;28;20037;-73
2021/10/01 07:36:01;;;;;;;0.20;0.20;;;11.70;93.20;;;;;;5047559;28;20094;-72
2021/10/01 08:19:28;;;;;;;0.00;0.00;;;12.90;90.00;;;;;;5060460;28;20506;-72
2021/10/01 08:21:55;;;;;;;0.10;0.10;;;13.00;90.00;;;;;;5058549;28;20037;-71
2021/10/01 08:24:21;;;;;;;0.40;0.40;;;13.10;89.60;;;;;;5059764;28;20423;-71
2021/10/01 08:26:47;;;;;;;0.10;0.10;;;13.20;88.70;;;;;;5051070;28;20027;-70
2021/10/01 08:29:13;;;;;;;5.50;1.48;;;13.20;88.70;;;;;;5061319;28;20382;-71
2021/10/01 08:31:40;;;;;;;0.25;0.25;;;13.30;88.10;;;;;;5066280;28;20108;-71
2021/10/01 08:34:06;;;;;;;0.90;0.65;;;13.40;87.40;;;;;;5061671;28;20028;-71
2021/10/01 08:36:32;;;;;;;0.10;0.10;;;13.40;87.90;;;;;;5062287;28;20028;-71
2021/10/01 08:38:57;;;;;;;0.82;0.22;;;13.40;86.10;;;;;;5060087;28;20473;-71
2021/10/01 08:41:23;;;;;;;0.28;0.28;;;13.50;86.90;;;;;;5061877;28;20028;-71
2021/10/01 08:43:59;;;;;;;0.00;0.00;;;13.50;85.80;;;;;;5060076;28;20036;-71
2021/10/01 08:46:26;;;;;;;2.00;0.52;;;13.60;85.90;;;;;;5061083;28;20025;-71
2021/10/01 08:48:53;;;;;;;0.10;0.10;;;13.60;86.60;;;;;;5049539;28;20049;-70
2021/10/01 08:51:18;;;;;;;0.08;0.05;;;13.70;87.00;;;;;;5059577;28;20482;-71
2021/10/01 08:53:45;;;;;;;0.00;0.00;;;13.90;85.00;;;;;;5059831;28;20035;-71
2021/10/01 08:56:11;;;;;;;0.13;0.13;;;14.00;85.40;;;;;;5055449;28;20629;-71
2021/10/01 08:58:37;;;;;;;0.30;0.30;;;14.10;85.30;;;;;;5056015;28;20131;-71
2021/10/01 09:01:03;;;;;;;0.10;0.10;;;14.20;85.30;;;;;;5059525;28;20104;-71
2021/10/01 09:03:29;;;;;;;0.68;0.32;;;14.30;83.70;;;;;;5063346;28;20064;-71
2021/10/01 09:05:55;;;;;;;4.03;1.55;;;14.40;83.30;;;;;;5067111;28;20047;-71
2021/10/01 09:08:23;;;;;;;0.00;0.00;;;14.50;83.00;;;;;;5063152;28;20016;-71
2021/10/01 09:11:07;;;;;;;1.33;0.55;;;14.60;82.70;;;;;;5045152;28;20178;-71
2021/10/01 09:13:34;;;;;;;0.20;0.20;;;14.60;82.90;;;;;;5050706;28;20028;-70
2021/10/01 09:16:03;;;;;;;0.25;0.25;;;14.70;81.50;;;;;;5053132;28;20077;-71
2021/10/01 09:18:33;;;;;;;0.10;0.10;;;14.80;81.50;;;;;;5047568;28;20120;-70
2021/10/01 09:21:13;;;;;;;0.10;0.10;;;14.90;83.00;;;;;;5058397;28;20434;-70
2021/10/01 09:23:44;;;;;;;0.20;0.20;;;14.90;80.90;;;;;;5063523;28;20032;-71
2021/10/01 09:26:17;;;;;;;0.38;0.28;;;15.00;82.00;;;;;;5064047;28;20099;-71
2021/10/01 09:28:57;;;;;;;0.00;0.00;;;15.00;82.90;;;;;;5060998;28;20021;-72
2021/10/01 09:31:34;;;;;;;0.08;0.08;;;15.00;83.20;;;;;;5056072;28;20040;-70
2021/10/01 09:34:01;;;;;;;0.35;0.20;;;15.10;81.30;;;;;;5062646;28;20035;-70
2021/10/01 09:36:27;;;;;;;0.40;0.35;;;15.10;81.20;;;;;;5057362;28;20033;-70
2021/10/01 09:38:54;;;;;;;0.15;0.15;;;15.00;81.10;;;;;;5062519;28;20131;-70
2021/10/01 09:41:33;;;;;;;0.10;0.10;;;15.10;81.00;;;;;;5062390;28;20416;-70
2021/10/01 09:44:11;;;;;;;0.20;0.20;;;15.10;80.90;;;;;;5058753;28;20558;-69
2021/10/01 09:46:49;;;;;;;0.10;0.10;;;15.20;79.80;;;;;;5064305;28;20522;-71
2021/10/01 09:49:17;;;;;;;0.28;0.17;;;15.30;80.10;;;;;;5058818;28;20165;-71
2021/10/01 09:51:52;;;;;;;0.10;0.10;;;15.40;78.80;;;;;;5059690;28;20085;-70
2021/10/01 09:54:20;;;;;;;0.20;0.20;;;15.50;78.60;;;;;;5055270;28;20103;-71
2021/10/01 09:56:46;;;;;;;1.00;0.88;;;15.60;78.60;;;;;;5057822;28;20039;-71
2021/10/01 09:59:20;;;;;;;0.50;0.25;;;15.70;77.00;;;;;;5067450;28;20032;-71
2021/10/01 10:02:05;;;;;;;0.35;0.35;;;15.80;78.20;;;;;;5061545;28;20060;-71
2021/10/01 10:04:43;;;;;;;0.38;0.38;;;15.90;79.80;;;;;;5064664;28;20107;-71
2021/10/01 10:07:13;;;;;;;0.00;0.00;;;16.00;78.30;;;;;;5066435;28;20032;-71
2021/10/01 10:09:42;;;;;;;0.10;0.10;;;16.20;76.40;;;;;;5064831;28;20048;-71
2021/10/01 10:12:12;;;;;;;0.43;0.05;;;16.20;75.80;;;;;;5057236;28;20028;-71
2021/10/01 10:14:46;;;;;;;0.08;0.08;;;16.30;76.40;;;;;;5062722;28;20029;-71
2021/10/01 10:17:14;;;;;;;0.55;0.30;;;16.40;75.30;;;;;;5064410;28;20028;-71
2021/10/01 10:19:40;;;;;;;0.10;0.10;;;16.50;74.50;;;;;;5068375;28;20099;-70
2021/10/01 10:22:05;;;;;;;0.20;0.15;;;16.60;74.50;;;;;;5057035;28;20108;-71
2021/10/01 10:24:30;;;;;;;0.28;0.28;;;16.80;75.00;;;;;;5057895;28;20115;-71
2021/10/01 10:26:57;;;;;;;24.20;0.38;;;16.80;75.40;;;;;;5059411;28;20017;-71
2021/10/01 10:29:25;;;;;;;0.35;0.35;;;16.90;73.90;;;;;;5058992;28;20086;-71
2021/10/01 10:31:51;;;;;;;0.47;0.47;;;17.10;74.40;;;;;;5055824;28;20090;-70
2021/10/01 10:34:19;;;;;;;0.10;0.10;;;17.20;72.50;;;;;;5041172;28;20065;-70
2021/10/01 10:36:47;;;;;;;0.10;0.10;;;17.30;70.10;;;;;;5064393;28;20443;-70
2021/10/01 10:39:13;;;;;;;0.22;0.22;;;17.40;70.50;;;;;;5062558;28;20029;-70
2021/10/01 10:42:01;;;;;;;0.30;0.28;;;17.50;68.10;;;;;;5066650;28;20386;-71
2021/10/01 10:44:48;;;;;;;0.03;0.03;;;17.60;69.80;;;;;;5074194;28;20032;-71
2021/10/01 10:47:38;;;;;;;0.00;0.00;;;17.70;66.70;;;;;;5055740;28;20021;-71
2021/10/01 10:50:24;;;;;;;0.00;0.00;;;17.90;69.60;;;;;;5063315;28;20436;-73
2021/10/01 10:53:06;;;;;;;1.30;0.35;;;18.10;66.80;;;;;;5058731;28;20384;-71
2021/10/01 10:55:43;;;;;;;0.55;0.35;;;18.30;67.60;;;;;;5057268;28;20028;-71
2021/10/01 10:58:27;;;;;;;0.20;0.20;;;18.50;66.70;;;;;;5043216;28;20053;-71
2021/10/01 11:01:01;;;;;;;0.00;0.00;;;18.60;68.10;;;;;;5039641;28;20025;-73
2021/10/01 11:03:28;;;;;;;0.52;0.40;;;18.80;67.80;;;;;;5034287;28;20033;-72
2021/10/01 11:06:09;;;;;;;0.20;0.17;;;19.00;67.90;;;;;;5034007;28;20369;-71
2021/10/01 11:08:36;;;;;;;0.00;0.00;;;19.20;65.50;;;;;;5051858;28;20085;-71
2021/10/01 11:11:02;;;;;;;1.10;0.82;;;19.30;65.50;;;;;;5043858;28;20029;-70
2021/10/01 11:13:32;;;;;;;0.30;0.30;;;19.40;64.20;;;;;;5044989;28;20102;-70
2021/10/01 11:16:07;;;;;;;0.13;0.10;;;19.50;65.40;;;;;;5041117;28;20025;-70
2021/10/01 11:18:33;;;;;;;0.22;0.22;;;19.60;66.20;;;;;;5039587;28;20382;-71
2021/10/01 11:20:59;;;;;;;0.20;0.20;;;19.70;62.30;;;;;;5037445;28;20033;-71
2021/10/01 11:23:25;;;;;;;0.20;0.20;;;19.80;63.40;;;;;;5038128;28;20497;-71
2021/10/01 11:25:52;;;;;;;1.08;0.43;;;19.90;61.90;;;;;;5043355;28;20128;-72
2021/10/01 11:28:44;;;;;;;0.30;0.30;;;20.00;66.70;;;;;;5032714;28;20495;-71
2021/10/01 11:31:09;;;;;;;1.52;1.10;;;20.20;59.90;;;;;;5034818;28;20064;-71
2021/10/01 11:33:35;;;;;;;0.32;0.32;;;20.20;59.50;;;;;;5045181;28;20898;-72
2021/10/01 11:36:01;;;;;;;0.10;0.10;;;20.20;59.80;;;;;;5041981;28;20024;-70
2021/10/01 11:38:30;;;;;;;0.32;0.30;;;20.20;60.20;;;;;;5031808;28;20025;-71
2021/10/01 11:41:14;;;;;;;8.98;1.27;;;20.40;59.60;;;;;;5039507;28;20464;-72
2021/10/01 11:43:48;;;;;;;0.35;0.20;;;20.60;59.60;;;;;;5021007;28;20037;-71
2021/10/01 11:46:19;;;;;;;1.38;0.35;;;21.00;56.80;;;;;;5036633;28;20108;-70
2021/10/01 11:48:45;;;;;;;;;;;21.40;54.70;;;;;;5041145;28;20396;-70
2021/10/01 11:51:11;;;;;;;0.00;0.00;;;21.70;54.10;;;;;;5041390;28;19923;-71
2021/10/01 11:53:37;;;;;;;0.10;0.10;;;21.90;53.40;;;;;;5046860;28;20036;-72
2021/10/01 11:56:06;;;;;;;0.20;0.20;;;22.00;54.80;;;;;;5042796;28;20029;-71
2021/10/01 11:58:34;;;;;;;0.10;0.10;;;22.10;55.90;;;;;;5057652;28;20617;-72
2021/10/01 12:01:14;;;;;;;0.20;0.20;;;22.00;56.20;;;;;;5058350;28;20499;-72
2021/10/01 12:03:51;;;;;;;0.30;0.30;;;21.80;53.90;;;;;;5059865;28;20491;-73
2021/10/01 12:06:24;;;;;;;0.38;0.30;;;21.90;55.70;;;;;;5056258;28;20100;-72
2021/10/01 12:08:57;;;;;;;0.13;0.13;;;22.20;56.00;;;;;;5054808;28;20226;-72
2021/10/01 12:11:29;;;;;;;0.00;0.00;;;22.60;54.80;;;;;;5055804;28;20055;-71
2021/10/01 12:13:55;;;;;;;0.10;0.10;;;22.80;51.60;;;;;;5061875;28;20498;-71
2021/10/01 12:16:21;;;;;;;7.60;0.40;;;22.70;49.80;;;;;;5062312;28;20029;-71
2021/10/01 12:18:57;;;;;;;1.27;0.88;;;22.50;50.90;;;;;;5063867;28;20038;-72
2021/10/01 12:21:25;;;;;;;1.02;0.30;;;22.40;51.00;;;;;;5061548;28;20036;-71
2021/10/01 12:23:56;;;;;;;0.03;0.03;;;22.30;54.70;;;;;;5058035;28;20525;-72
2021/10/01 12:26:29;;;;;;;0.52;0.32;;;22.30;54.70;;;;;;5057717;28;20020;-70
2021/10/01 12:29:13;;;;;;;0.10;0.10;;;22.40;53.10;;;;;;5060446;28;20021;-70
2021/10/01 12:31:45;;;;;;;0.00;0.00;;;22.40;54.40;;;;;;5059263;28;20521;-70
2021/10/01 12:34:32;;;;;;;0.10;0.10;;;22.40;50.60;;;;;;5060871;28;20031;-70
2021/10/01 12:37:18;;;;;;;0.10;0.10;;;22.30;50.90;;;;;;5055063;28;20032;-70
2021/10/01 12:39:48;;;;;;;0.30;0.30;;;22.30;49.50;;;;;;5058533;28;20043;-70
2021/10/01 12:42:15;;;;;;;0.22;0.22;;;22.40;52.40;;;;;;5058200;28;20036;-71
2021/10/01 12:44:43;;;;;;;0.10;0.10;;;22.50;50.80;;;;;;5064429;28;20037;-71
2021/10/01 12:47:17;;;;;;;0.10;0.10;;;22.70;51.50;;;;;;5064544;28;20044;-71
2021/10/01 12:49:55;;;;;;;0.10;0.10;;;22.80;50.10;;;;;;5062398;28;20025;-71
2021/10/01 12:52:22;;;;;;;0.88;0.68;;;22.90;47.30;;;;;;5053232;28;20644;-72
2021/10/01 12:54:52;;;;;;;0.20;0.20;;;22.90;47.40;;;;;;5059197;28;20032;-69
2021/10/01 12:57:32;;;;;;;0.47;0.28;;;23.10;49.00;;;;;;5068507;28;20468;-71
2021/10/01 13:00:01;;;;;;;0.13;0.13;;;23.30;46.60;;;;;;5062847;28;20032;-71
2021/10/01 13:02:28;;;;;;;0.00;0.00;;;23.90;45.50;;;;;;5059267;28;20421;-71
2021/10/01 13:05:36;;;;;;;0.10;0.10;;;24.30;44.30;;;;;;5063592;28;20036;-71
2021/10/01 13:08:02;;;;;;;0.03;0.03;;;24.70;43.20;;;;;;5052619;28;20483;-71
2021/10/01 13:10:40;;;;;;;0.80;0.63;;;25.40;41.40;;;;;;5060439;28;20027;-71
2021/10/01 13:13:20;;;;;;;0.73;0.22;;;25.90;41.80;;;;;;5068399;28;20783;-69
2021/10/01 13:16:00;;;;;;;0.25;0.25;;;26.50;40.50;;;;;;5064325;28;20035;-72
2021/10/01 13:18:27;;;;;;;0.10;0.10;;;26.90;39.70;;;;;;5062885;28;20035;-72
2021/10/01 13:21:02;;;;;;;0.10;0.10;;;27.30;40.70;;;;;;5054624;28;20159;-71
2021/10/01 13:23:29;;;;;;;0.20;0.20;;;27.60;40.10;;;;;;5061223;28;20020;-71
2021/10/01 13:25:57;;;;;;;0.90;0.45;;;27.80;41.50;;;;;;5047975;28;20029;-71
2021/10/01 13:28:25;;;;;;;0.43;0.43;;;28.10;40.70;;;;;;5058436;28;20035;-71
2021/10/01 13:30:54;;;;;;;0.20;0.20;;;28.10;37.90;;;;;;5067979;28;20208;-71
2021/10/01 13:33:23;;;;;;;0.20;0.20;;;28.00;36.80;;;;;;5064321;28;20033;-72
2021/10/01 13:35:49;;;;;;;0.20;0.20;;;27.90;37.80;;;;;;5061781;28;20403;-72
2021/10/01 13:38:14;;;;;;;0.20;0.20;;;27.90;39.10;;;;;;5061337;28;20418;-71
2021/10/01 13:40:41;;;;;;;0.55;0.22;;;28.10;40.30;;;;;;5070305;28;20032;-73
2021/10/01 13:43:07;;;;;;;0.20;0.20;;;28.30;36.90;;;;;;5062228;28;20031;-72
2021/10/01 13:45:33;;;;;;;0.20;0.20;;;28.50;36.60;;;;;;5065180;28;20104;-72
2021/10/01 13:48:00;;;;;;;0.10;0.10;;;28.40;38.60;;;;;;5071899;28;20024;-71
2021/10/01 13:50:25;;;;;;;0.32;0.32;;;28.30;37.80;;;;;;5063001;28;20025;-71
2021/10/01 13:52:51;;;;;;;0.15;0.15;;;28.20;38.00;;;;;;5067783;28;20025;-71
2021/10/01 13:55:18;;;;;;;0.10;0.10;;;28.10;38.30;;;;;;5054363;28;20060;-71
2021/10/01 13:57:45;;;;;;;0.10;0.10;;;28.00;38.10;;;;;;5049655;28;20151;-72
2021/10/01 14:00:13;;;;;;;0.22;0.22;;;28.00;37.90;;;;;;5047312;28;20032;-72
2021/10/01 14:02:41;;;;;;;0.43;0.43;;;28.10;38.60;;;;;;5041759;28;20095;-72
2021/10/01 14:05:09;;;;;;;0.20;0.20;;;28.20;38.40;;;;;;5046903;28;20033;-72
2021/10/01 14:07:35;;;;;;;0.22;0.20;;;28.30;36.30;;;;;;5046350;28;20025;-71
2021/10/01 14:10:01;;;;;;;0.30;0.30;;;28.30;36.40;;;;;;5044867;28;20494;-71
2021/10/01 14:12:28;;;;;;;0.20;0.20;;;28.40;36.10;;;;;;5043910;28;20036;-71
2021/10/01 14:14:53;;;;;;;0.20;0.20;;;28.50;37.00;;;;;;5044238;28;20033;-71
2021/10/01 14:17:19;;;;;;;0.10;0.10;;;28.30;35.60;;;;;;5049190;28;20518;-72
2021/10/01 14:19:45;;;;;;;0.90;0.50;;;28.00;35.60;;;;;;5046949;28;20017;-71
2021/10/01 14:22:10;;;;;;;0.10;0.10;;;27.90;37.00;;;;;;5044322;28;20372;-72
2021/10/01 14:24:37;;;;;;;0.10;0.10;;;27.90;36.70;;;;;;5046811;28;20028;-71